createdAt,value
2023-12-02T00:01:10.098Z,101081.16
2023-12-02T00:03:37.188Z,101079.81
2023-12-02T00:06:04.959Z,101078.97
2023-12-02T00:08:31.877Z,101078.66
2023-12-02T00:10:59.256Z,101077.59
2023-12-02T00:13:26.122Z,101074.22
2023-12-02T00:15:53.201Z,101074.69
2023-12-02T00:18:21.107Z,101069.19
2023-12-02T00:20:48.144Z,101062.44
2023-12-02T00:23:14.978Z,101065.00
2023-12-02T00:25:42.019Z,101067.97
2023-12-02T00:28:08.864Z,101065.81
2023-12-02T00:30:36.085Z,101072.03
2023-12-02T00:33:03.320Z,101074.19
2023-12-02T00:35:30.233Z,101080.13
2023-12-02T00:37:57.146Z,101079.31
2023-12-02T00:40:24.650Z,101079.81
2023-12-02T00:42:51.570Z,101073.31
2023-12-02T00:45:19.589Z,101075.16
2023-12-02T00:47:47.232Z,101072.44
2023-12-02T00:50:14.107Z,101078.66
2023-12-02T00:52:41.183Z,101083.50
2023-12-02T00:55:08.951Z,101088.09
2023-12-02T00:57:35.907Z,101085.06
2023-12-02T01:00:05.226Z,101075.59
2023-12-02T01:02:32.336Z,101079.34
2023-12-02T01:04:59.205Z,101079.06
2023-12-02T01:07:26.111Z,101077.22
2023-12-02T01:09:53.047Z,101071.63
2023-12-02T01:12:19.901Z,101076.53
2023-12-02T01:14:46.786Z,101067.38
2023-12-02T01:17:13.925Z,101065.00
2023-12-02T01:19:40.798Z,101060.00
2023-12-02T01:22:07.738Z,101064.66
2023-12-02T01:24:34.928Z,101066.25
2023-12-02T01:27:01.867Z,101067.13
2023-12-02T01:29:30.097Z,101073.38
2023-12-02T01:31:57.370Z,101068.97
2023-12-02T01:34:24.263Z,101075.72
2023-12-02T01:36:51.162Z,101077.66
2023-12-02T01:39:18.193Z,101080.06
2023-12-02T01:41:45.025Z,101082.78
2023-12-02T01:44:14.744Z,101077.84
2023-12-02T01:46:41.731Z,101086.00
2023-12-02T01:49:11.222Z,101085.72
2023-12-02T01:51:38.374Z,101081.94
2023-12-02T01:54:05.962Z,101088.13
2023-12-02T01:56:32.868Z,101078.63
2023-12-02T01:59:01.129Z,101077.06
2023-12-02T02:01:28.287Z,101077.00
2023-12-02T02:03:55.201Z,101075.91
2023-12-02T02:06:22.512Z,101070.25
2023-12-02T02:08:49.526Z,101074.13
2023-12-02T02:11:16.382Z,101069.72
2023-12-02T02:13:43.185Z,101068.13
2023-12-02T02:16:10.302Z,101074.34
2023-12-02T02:18:40.430Z,101074.63
2023-12-02T02:21:07.661Z,101064.53
2023-12-02T02:23:34.662Z,101074.00
2023-12-02T02:26:01.568Z,101078.31
2023-12-02T02:28:29.520Z,101075.34
2023-12-02T02:30:56.673Z,101073.38
2023-12-02T02:33:23.867Z,101075.03
2023-12-02T02:35:50.905Z,101076.69
2023-12-02T02:38:18.015Z,101074.81
2023-12-02T02:40:45.248Z,101072.63
2023-12-02T02:43:12.705Z,101071.25
2023-12-02T02:45:39.737Z,101073.13
2023-12-02T02:48:07.091Z,101072.84
2023-12-02T02:50:34.083Z,101069.78
2023-12-02T02:53:01.078Z,101078.97
2023-12-02T02:55:28.027Z,101080.06
2023-12-02T02:57:54.929Z,101080.59
2023-12-02T03:00:22.614Z,101081.69
2023-12-02T03:02:49.680Z,101082.78
2023-12-02T03:05:20.213Z,101076.31
2023-12-02T03:07:47.371Z,101080.97
2023-12-02T03:10:14.423Z,101082.31
2023-12-02T03:12:41.276Z,101076.31
2023-12-02T03:15:11.554Z,101078.97
2023-12-02T03:17:39.218Z,101082.16
2023-12-02T03:20:07.578Z,101089.53
2023-12-02T03:22:34.626Z,101084.56
2023-12-02T03:25:01.578Z,101087.28
2023-12-02T03:27:28.531Z,101086.88
2023-12-02T03:29:55.514Z,101077.06
2023-12-02T03:32:22.627Z,101078.56
2023-12-02T03:34:49.663Z,101076.19
2023-12-02T03:37:16.602Z,101072.50
2023-12-02T03:39:43.598Z,101068.72
2023-12-02T03:42:10.529Z,101075.22
2023-12-02T03:44:37.533Z,101073.66
2023-12-02T03:47:04.852Z,101070.69
2023-12-02T03:49:31.910Z,101069.66
2023-12-02T03:52:00.552Z,101072.38
2023-12-02T03:54:27.725Z,101073.19
2023-12-02T03:56:54.687Z,101074.22
2023-12-02T03:59:21.992Z,101074.22
2023-12-02T04:01:48.822Z,101079.06
2023-12-02T04:04:15.743Z,101082.59
2023-12-02T04:06:42.818Z,101073.59
2023-12-02T04:09:11.109Z,101068.72
2023-12-02T04:11:38.063Z,101077.44
2023-12-02T04:14:04.973Z,101075.28
2023-12-02T04:16:31.795Z,101074.47
2023-12-02T04:18:58.737Z,101076.34
2023-12-02T04:21:28.160Z,101071.81
2023-12-02T04:23:55.228Z,101071.22
2023-12-02T04:26:22.488Z,101067.16
2023-12-02T04:28:49.423Z,101078.84
2023-12-02T04:31:16.321Z,101073.97
2023-12-02T04:33:43.274Z,101077.00
2023-12-02T04:36:10.948Z,101082.59
2023-12-02T04:38:38.892Z,101080.63
2023-12-02T04:41:06.364Z,101086.81
2023-12-02T04:43:33.280Z,101088.72
2023-12-02T04:46:00.319Z,101082.53
2023-12-02T04:48:27.257Z,101086.16
2023-12-02T04:50:54.406Z,101086.16
2023-12-02T04:53:21.965Z,101087.28
2023-12-02T04:55:49.014Z,101086.75
2023-12-02T04:58:16.005Z,101087.78
2023-12-02T05:00:43.215Z,101086.16
2023-12-02T05:03:11.761Z,101091.56
2023-12-02T05:05:38.795Z,101089.09
2023-12-02T05:08:05.709Z,101093.44
2023-12-02T05:10:32.753Z,101095.66
2023-12-02T05:12:59.699Z,101099.97
2023-12-02T05:15:26.726Z,101099.16
2023-12-02T05:17:54.027Z,101109.16
2023-12-02T05:20:22.098Z,101118.06
2023-12-02T05:22:50.818Z,101108.84
2023-12-02T05:25:18.147Z,101118.38
2023-12-02T05:27:45.093Z,101118.09
2023-12-02T05:30:14.694Z,101121.56
2023-12-02T05:32:43.310Z,101124.19
2023-12-02T05:35:13.450Z,101123.03
2023-12-02T05:37:40.977Z,101124.03
2023-12-02T05:40:10.605Z,101122.22
2023-12-02T05:42:37.704Z,101121.75
2023-12-02T05:45:05.856Z,101115.25
2023-12-02T05:47:32.935Z,101114.91
2023-12-02T05:50:00.059Z,101117.31
2023-12-02T05:52:26.961Z,101118.94
2023-12-02T05:54:54.573Z,101124.38
2023-12-02T05:57:22.270Z,101128.69
2023-12-02T05:59:49.171Z,101135.97
2023-12-02T06:02:16.204Z,101139.50
2023-12-02T06:04:43.855Z,101136.25
2023-12-02T06:07:11.461Z,101143.53
2023-12-02T06:09:42.773Z,101145.16
2023-12-02T06:12:09.822Z,101141.34
2023-12-02T06:14:36.842Z,101145.97
2023-12-02T06:17:04.601Z,101141.34
2023-12-02T06:19:31.641Z,101143.25
2023-12-02T06:21:58.646Z,101134.31
2023-12-02T06:24:25.648Z,101140.31
2023-12-02T06:26:52.625Z,101137.63
2023-12-02T06:29:19.540Z,101131.19
2023-12-02T06:31:51.167Z,101136.81
2023-12-02T06:34:18.290Z,101141.41
2023-12-02T06:36:45.753Z,101147.00
2023-12-02T06:39:16.459Z,101153.00
2023-12-02T06:41:43.733Z,101152.75
2023-12-02T06:44:10.817Z,101151.34
2023-12-02T06:46:37.824Z,101161.63
2023-12-02T06:49:05.574Z,101164.59
2023-12-02T06:51:32.510Z,101159.72
2023-12-02T06:54:00.006Z,101163.81
2023-12-02T06:56:27.447Z,101168.31
2023-12-02T06:58:54.765Z,101171.28
2023-12-02T07:01:29.623Z,101170.47
2023-12-02T07:03:58.857Z,101171.34
2023-12-02T07:06:27.177Z,101182.38
2023-12-02T07:08:55.558Z,101179.50
2023-12-02T07:11:22.678Z,101191.50
2023-12-02T07:13:49.670Z,101190.97
2023-12-02T07:16:16.912Z,101198.53
2023-12-02T07:18:43.967Z,101199.53
2023-12-02T07:21:11.004Z,101194.91
2023-12-02T07:23:38.017Z,101195.13
2023-12-02T07:26:05.885Z,101197.84
2023-12-02T07:28:32.807Z,101203.28
2023-12-02T07:30:59.976Z,101195.66
2023-12-02T07:33:27.001Z,101205.13
2023-12-02T07:35:53.988Z,101207.00
2023-12-02T07:38:21.248Z,101202.59
2023-12-02T07:40:48.234Z,101204.53
2023-12-02T07:43:15.154Z,101209.13
2023-12-02T07:45:43.324Z,101211.78
2023-12-02T07:48:11.902Z,101203.38
2023-12-02T07:50:39.543Z,101211.84
2023-12-02T07:53:06.652Z,101215.38
2023-12-02T07:55:33.898Z,101220.75
2023-12-02T07:58:01.197Z,101225.91
2023-12-02T08:00:28.292Z,101227.75
2023-12-02T08:02:55.241Z,101228.72
2023-12-02T08:07:52.634Z,101234.16
2023-12-02T08:10:19.658Z,101240.63
2023-12-02T08:12:46.570Z,101248.47
2023-12-02T08:15:13.568Z,101245.41
2023-12-02T08:17:40.472Z,101252.72
2023-12-02T08:20:10.004Z,101253.00
2023-12-02T08:22:37.255Z,101255.44
2023-12-02T08:25:04.684Z,101257.72
2023-12-02T08:27:32.454Z,101261.19
2023-12-02T08:29:59.578Z,101256.56
2023-12-02T08:32:26.572Z,101260.03
2023-12-02T08:34:53.594Z,101269.16
2023-12-02T08:37:20.701Z,101261.16
2023-12-02T08:39:47.772Z,101266.88
2023-12-02T08:42:15.985Z,101266.06
2023-12-02T08:44:43.203Z,101274.16
2023-12-02T08:47:10.940Z,101276.28
2023-12-02T08:49:37.914Z,101272.69
2023-12-02T08:52:05.689Z,101273.44
2023-12-02T08:54:32.552Z,101281.81
2023-12-02T08:56:59.467Z,101282.16
2023-12-02T08:59:26.674Z,101282.63
2023-12-02T09:01:53.732Z,101278.81
2023-12-02T09:04:20.869Z,101282.84
2023-12-02T09:06:47.927Z,101281.66
2023-12-02T09:09:14.907Z,101290.19
2023-12-02T09:11:44.861Z,101286.41
2023-12-02T09:14:12.010Z,101292.19
2023-12-02T09:16:47.554Z,101299.69
2023-12-02T09:19:45.667Z,101293.25
2023-12-02T09:22:31.059Z,101297.34
2023-12-02T09:24:58.122Z,101307.44
2023-12-02T09:27:54.301Z,101303.28
2023-12-02T09:30:21.847Z,101298.75
2023-12-02T09:32:49.041Z,101304.53
2023-12-02T09:35:16.238Z,101303.63
2023-12-02T09:37:52.278Z,101314.03
2023-12-02T09:40:22.180Z,101309.59
2023-12-02T09:42:55.980Z,101307.38
2023-12-02T09:45:26.144Z,101305.94
2023-12-02T09:48:06.894Z,101309.06
2023-12-02T09:51:11.577Z,101323.34
2023-12-02T09:53:56.242Z,101325.06
2023-12-02T09:56:29.074Z,101323.03
2023-12-02T09:59:16.181Z,101323.75
2023-12-02T10:01:47.971Z,101328.28
2023-12-02T10:04:47.372Z,101333.72
2023-12-02T10:07:45.767Z,101332.63
2023-12-02T10:10:19.119Z,101337.88
2023-12-02T10:12:47.460Z,101335.25
2023-12-02T10:15:18.563Z,101337.78
2023-12-02T10:18:01.693Z,101339.91
2023-12-02T10:20:29.846Z,101334.44
2023-12-02T10:23:11.911Z,101332.69
2023-12-02T10:25:50.894Z,101335.81
2023-12-02T10:28:32.664Z,101334.72
2023-12-02T10:31:05.342Z,101331.53
2023-12-02T10:34:01.773Z,101336.03
2023-12-02T10:36:29.955Z,101339.66
2023-12-02T10:39:14.883Z,101334.59
2023-12-02T10:41:48.521Z,101334.59
2023-12-02T10:44:17.962Z,101335.72
2023-12-02T10:46:45.589Z,101331.13
2023-12-02T10:49:15.839Z,101331.53
2023-12-02T10:51:44.276Z,101335.84
2023-12-02T10:54:15.050Z,101324.31
2023-12-02T10:56:46.901Z,101326.44
2023-12-02T10:59:14.888Z,101321.09
2023-12-02T11:02:18.450Z,101323.09
2023-12-02T11:04:49.109Z,101322.91
2023-12-02T11:07:17.952Z,101324.31
2023-12-02T11:09:55.347Z,101329.78
2023-12-02T11:12:28.365Z,101334.75
2023-12-02T11:15:04.453Z,101318.94
2023-12-02T11:17:43.413Z,101329.63
2023-12-02T11:20:16.493Z,101328.56
2023-12-02T11:23:21.054Z,101322.09
2023-12-02T11:25:58.018Z,101333.75
2023-12-02T11:28:25.052Z,101333.84
2023-12-02T11:30:55.233Z,101326.47
2023-12-02T11:33:42.585Z,101332.53
2023-12-02T11:36:20.687Z,101334.28
2023-12-02T11:39:09.980Z,101330.31
2023-12-02T11:41:59.236Z,101341.22
2023-12-02T11:44:36.259Z,101331.19
2023-12-02T11:47:48.059Z,101336.16
2023-12-02T11:50:28.474Z,101327.28
2023-12-02T11:53:01.274Z,101332.31
2023-12-02T11:55:32.234Z,101337.78
2023-12-02T11:58:15.223Z,101334.09
2023-12-02T12:01:00.108Z,101331.69
2023-12-02T12:03:50.086Z,101331.69
2023-12-02T12:06:42.575Z,101337.50
2023-12-02T12:09:13.598Z,101330.56
2023-12-02T12:11:41.871Z,101331.06
2023-12-02T12:14:10.147Z,101337.22
2023-12-02T12:16:42.844Z,101333.44
2023-12-02T12:19:11.060Z,101331.56
2023-12-02T12:21:38.124Z,101336.03
2023-12-02T12:24:05.455Z,101328.59
2023-12-02T12:26:32.342Z,101335.66
2023-12-02T12:28:59.414Z,101338.72
2023-12-02T12:31:30.792Z,101330.13
2023-12-02T12:33:59.583Z,101329.56
2023-12-02T12:36:30.757Z,101333.59
2023-12-02T12:39:04.559Z,101335.41
2023-12-02T12:41:31.779Z,101334.09
2023-12-02T12:43:59.171Z,101341.50
2023-12-02T12:46:29.772Z,101337.50
2023-12-02T12:48:57.610Z,101337.03
2023-12-02T12:51:27.560Z,101342.31
2023-12-02T12:54:01.368Z,101343.56
2023-12-02T12:56:48.156Z,101340.56
2023-12-02T12:59:19.936Z,101345.22
2023-12-02T13:01:59.808Z,101346.22
2023-12-02T13:04:57.596Z,101349.66
2023-12-02T13:07:40.041Z,101345.97
2023-12-02T13:10:09.665Z,101335.97
2023-12-02T13:12:40.964Z,101344.91
2023-12-02T13:15:15.277Z,101337.25
2023-12-02T13:17:43.592Z,101338.91
2023-12-02T13:20:13.236Z,101346.00
2023-12-02T13:22:46.650Z,101347.13
2023-12-02T13:25:19.549Z,101349.06
2023-12-02T13:27:57.244Z,101349.97
2023-12-02T13:30:25.865Z,101351.59
2023-12-02T13:32:55.676Z,101348.75
2023-12-02T13:35:34.309Z,101347.53
2023-12-02T13:38:22.718Z,101345.81
2023-12-02T13:40:55.692Z,101340.75
2023-12-02T13:43:32.263Z,101345.00
2023-12-02T13:46:02.240Z,101346.13
2023-12-02T13:51:31.261Z,101350.00
2023-12-02T13:54:14.112Z,101347.88
2023-12-02T13:56:51.028Z,101346.88
2023-12-02T13:59:53.129Z,101350.84
2023-12-02T14:02:37.035Z,101351.50
2023-12-02T14:05:08.053Z,101344.75
2023-12-02T14:07:46.588Z,101347.78
2023-12-02T14:10:17.797Z,101352.94
2023-12-02T14:13:04.314Z,101355.16
2023-12-02T14:15:50.590Z,101356.59
2023-12-02T14:18:37.145Z,101354.25
2023-12-02T14:21:15.073Z,101358.78
2023-12-02T14:23:56.007Z,101361.91
2023-12-02T14:26:28.982Z,101362.34
2023-12-02T14:29:04.960Z,101362.22
2023-12-02T14:32:06.748Z,101365.97
2023-12-02T14:34:59.020Z,101368.88
2023-12-02T14:37:34.875Z,101375.75
2023-12-02T14:40:53.751Z,101385.34
2023-12-02T14:43:42.085Z,101382.69
2023-12-02T14:46:10.472Z,101382.78
2023-12-02T14:48:37.910Z,101394.78
2023-12-02T14:51:05.726Z,101395.22
2023-12-02T14:53:36.667Z,101397.72
2023-12-02T14:56:29.185Z,101402.13
2023-12-02T14:58:59.844Z,101409.00
2023-12-02T15:01:43.228Z,101418.03
2023-12-02T15:04:16.822Z,101412.09
2023-12-02T15:06:44.003Z,101414.38
2023-12-02T15:09:24.667Z,101417.69
2023-12-02T15:12:00.953Z,101416.38
2023-12-02T15:14:28.890Z,101421.69
2023-12-02T15:16:59.068Z,101428.63
2023-12-02T15:19:27.698Z,101424.06
2023-12-02T15:22:06.525Z,101426.84
2023-12-02T15:24:33.457Z,101419.19
2023-12-02T15:27:00.360Z,101424.41
2023-12-02T15:29:27.386Z,101432.31
2023-12-02T15:31:54.313Z,101438.47
2023-12-02T15:34:21.249Z,101440.84
2023-12-02T15:36:48.330Z,101433.72
2023-12-02T15:39:16.007Z,101434.06
2023-12-02T15:41:46.407Z,101440.34
2023-12-02T15:44:13.610Z,101439.53
2023-12-02T15:46:41.152Z,101446.28
2023-12-02T15:49:08.442Z,101448.72
2023-12-02T15:51:38.016Z,101449.03
2023-12-02T15:54:11.966Z,101460.16
2023-12-02T15:56:39.593Z,101469.31
2023-12-02T15:59:11.363Z,101467.34
2023-12-02T16:01:49.138Z,101472.38
2023-12-02T16:04:17.360Z,101468.59
2023-12-02T16:06:48.235Z,101479.63
2023-12-02T16:09:21.495Z,101474.84
2023-12-02T16:11:51.751Z,101483.97
2023-12-02T16:14:20.398Z,101487.38
2023-12-02T16:16:54.384Z,101486.63
2023-12-02T16:19:24.079Z,101483.91
2023-12-02T16:21:52.366Z,101481.22
2023-12-02T16:24:20.320Z,101481.22
2023-12-02T16:26:48.551Z,101484.31
2023-12-02T16:29:16.438Z,101480.03
2023-12-02T16:31:46.243Z,101486.84
2023-12-02T16:34:14.503Z,101486.59
2023-12-02T16:36:43.272Z,101492.53
2023-12-02T16:39:14.230Z,101494.75
2023-12-02T16:41:43.898Z,101493.13
2023-12-02T16:44:10.969Z,101487.28
2023-12-02T16:46:42.902Z,101490.38
2023-12-02T16:49:20.144Z,101488.50
2023-12-02T16:51:47.646Z,101490.13
2023-12-02T16:54:15.620Z,101494.28
2023-12-02T16:56:43.121Z,101491.38
2023-12-02T16:59:49.616Z,101492.59
2023-12-02T17:02:44.932Z,101500.84
2023-12-02T17:05:38.143Z,101507.38
2023-12-02T17:08:05.088Z,101512.34
2023-12-02T17:10:44.228Z,101507.19
2023-12-02T17:13:45.879Z,101504.22
2023-12-02T17:16:31.580Z,101508.00
2023-12-02T17:19:02.877Z,101499.84
2023-12-02T17:21:32.916Z,101507.75
2023-12-02T17:24:01.073Z,101511.53
2023-12-02T17:26:30.021Z,101518.88
2023-12-02T17:28:57.357Z,101515.09
2023-12-02T17:31:24.635Z,101518.94
2023-12-02T17:33:52.463Z,101518.38
2023-12-02T17:36:19.541Z,101518.38
2023-12-02T17:38:46.525Z,101525.13
2023-12-02T17:41:13.694Z,101531.41
2023-12-02T17:43:40.845Z,101536.78
2023-12-02T17:46:07.793Z,101544.38
2023-12-02T17:48:34.928Z,101546.19
2023-12-02T17:51:01.974Z,101554.53
2023-12-02T17:53:28.845Z,101553.72
2023-12-02T17:55:55.792Z,101547.00
2023-12-02T17:58:22.748Z,101553.91
2023-12-02T18:00:50.112Z,101554.25
2023-12-02T18:03:17.417Z,101563.00
2023-12-02T18:05:44.536Z,101557.03
2023-12-02T18:08:11.422Z,101560.88
2023-12-02T18:10:38.386Z,101560.34
2023-12-02T18:13:05.355Z,101550.81
2023-12-02T18:15:33.553Z,101553.03
2023-12-02T18:18:00.941Z,101554.91
2023-12-02T18:20:28.086Z,101551.56
2023-12-02T18:22:55.144Z,101554.25
2023-12-02T18:25:22.656Z,101550.13
2023-12-02T18:27:49.868Z,101555.88
2023-12-02T18:30:17.776Z,101562.72
2023-12-02T18:32:45.029Z,101556.25
2023-12-02T18:35:11.990Z,101556.06
2023-12-02T18:37:38.952Z,101555.03
2023-12-02T18:40:06.756Z,101553.66
2023-12-02T18:42:33.804Z,101560.47
2023-12-02T18:45:01.045Z,101552.56
2023-12-02T18:47:28.147Z,101558.53
2023-12-02T18:49:55.253Z,101554.97
2023-12-02T18:52:22.538Z,101563.09
2023-12-02T18:54:51.210Z,101557.69
2023-12-02T18:57:18.228Z,101560.94
2023-12-02T18:59:46.130Z,101568.53
2023-12-02T19:02:13.055Z,101566.91
2023-12-02T19:04:40.166Z,101573.97
2023-12-02T19:07:09.346Z,101567.34
2023-12-02T19:09:36.418Z,101577.88
2023-12-02T19:12:03.518Z,101567.19
2023-12-02T19:14:30.653Z,101579.03
2023-12-02T19:16:57.571Z,101596.09
2023-12-02T19:19:24.531Z,101605.34
2023-12-02T19:21:51.828Z,101616.47
2023-12-02T19:24:18.778Z,101615.28
2023-12-02T19:26:45.753Z,101611.06
2023-12-02T19:29:15.764Z,101614.50
2023-12-02T19:31:43.575Z,101595.41
2023-12-02T19:34:10.713Z,101601.44
2023-12-02T19:36:38.616Z,101603.41
2023-12-02T19:39:05.728Z,101601.59
2023-12-02T19:41:32.833Z,101600.66
2023-12-02T19:43:59.844Z,101607.31
2023-12-02T19:46:27.055Z,101610.03
2023-12-02T19:48:54.076Z,101589.66
2023-12-02T19:51:21.182Z,101595.94
2023-12-02T19:53:51.136Z,101591.88
2023-12-02T19:56:18.787Z,101600.88
2023-12-02T19:58:45.799Z,101599.25
2023-12-02T20:01:12.737Z,101600.34
2023-12-02T20:03:39.762Z,101601.22
2023-12-02T20:06:07.082Z,101600.41
2023-12-02T20:08:34.001Z,101601.50
2023-12-02T20:11:00.995Z,101592.00
2023-12-02T20:13:30.148Z,101587.13
2023-12-02T20:15:57.530Z,101594.47
2023-12-02T20:18:24.802Z,101590.69
2023-12-02T20:20:52.001Z,101599.13
2023-12-02T20:23:23.097Z,101589.06
2023-12-02T20:25:50.669Z,101597.50
2023-12-02T20:28:17.642Z,101595.34
2023-12-02T20:30:44.633Z,101601.09
2023-12-02T20:33:12.260Z,101600.53
2023-12-02T20:35:39.474Z,101606.31
2023-12-02T20:38:06.324Z,101612.59
2023-12-02T20:40:33.296Z,101608.25
2023-12-02T20:43:00.184Z,101602.56
2023-12-02T20:45:27.082Z,101607.44
2023-12-02T20:47:54.189Z,101609.38
2023-12-02T20:50:21.353Z,101605.31
2023-12-02T20:52:49.578Z,101611.84
2023-12-02T20:55:16.653Z,101598.56
2023-12-02T20:57:44.066Z,101602.94
2023-12-02T21:00:11.918Z,101610.03
2023-12-02T21:02:39.051Z,101608.16
2023-12-02T21:05:06.184Z,101600.56
2023-12-02T21:07:33.227Z,101615.22
2023-12-02T21:10:00.678Z,101611.16
2023-12-02T21:12:30.288Z,101610.91
2023-12-02T21:14:58.248Z,101609.78
2023-12-02T21:17:25.085Z,101609.31
2023-12-02T21:19:52.123Z,101609.03
2023-12-02T21:22:19.061Z,101609.88
2023-12-02T21:24:48.076Z,101615.03
2023-12-02T21:27:16.097Z,101610.72
2023-12-02T21:29:44.547Z,101608.28
2023-12-02T21:32:31.365Z,101613.47
2023-12-02T21:35:07.955Z,101617.22
2023-12-02T21:37:35.745Z,101614.81
2023-12-02T21:40:04.272Z,101614.28
2023-12-02T21:42:31.458Z,101620.81
2023-12-02T21:44:58.732Z,101623.53
2023-12-02T21:47:25.567Z,101623.81
2023-12-02T21:49:53.215Z,101624.88
2023-12-02T21:52:20.240Z,101624.34
2023-12-02T21:54:47.779Z,101625.47
2023-12-02T21:57:15.296Z,101622.75
2023-12-02T21:59:42.281Z,101634.69
2023-12-02T22:02:19.953Z,101624.41
2023-12-02T22:04:47.355Z,101633.91
2023-12-02T22:07:26.103Z,101629.56
2023-12-02T22:09:56.364Z,101625.22
2023-12-02T22:12:23.299Z,101627.38
2023-12-02T22:14:50.520Z,101632.25
2023-12-02T22:17:26.362Z,101634.13
2023-12-02T22:19:54.332Z,101633.34
2023-12-02T22:22:54.997Z,101642.03
2023-12-02T22:25:23.718Z,101643.69
2023-12-02T22:28:05.201Z,101651.78
2023-12-02T22:30:42.789Z,101650.97
2023-12-02T22:33:10.181Z,101649.59
2023-12-02T22:35:43.277Z,101656.91
2023-12-02T22:38:37.060Z,101661.25
2023-12-02T22:41:05.141Z,101659.06
2023-12-02T22:43:32.773Z,101669.91
2023-12-02T22:45:59.934Z,101659.78
2023-12-02T22:48:47.348Z,101662.19
2023-12-02T22:51:28.950Z,101681.19
2023-12-02T22:53:58.939Z,101697.50
2023-12-02T22:56:30.692Z,101712.47
2023-12-02T22:58:58.027Z,101721.41
2023-12-02T23:01:35.743Z,101718.06
2023-12-02T23:04:38.095Z,101731.03
2023-12-02T23:07:43.488Z,101725.53
2023-12-02T23:10:42.501Z,101719.75
2023-12-02T23:13:30.767Z,101737.63
2023-12-02T23:15:58.526Z,101730.28
2023-12-02T23:18:31.112Z,101735.09
2023-12-02T23:20:58.660Z,101728.50
2023-12-02T23:23:25.589Z,101743.59
2023-12-02T23:25:52.774Z,101732.41
2023-12-02T23:28:19.948Z,101736.75
2023-12-02T23:30:47.122Z,101745.75
2023-12-02T23:33:17.397Z,101745.75
2023-12-02T23:35:44.728Z,101746.06
2023-12-02T23:38:11.592Z,101743.91
2023-12-02T23:40:46.012Z,101743.59
2023-12-02T23:43:31.469Z,101747.16
2023-12-02T23:45:58.581Z,101743.03
2023-12-02T23:48:25.689Z,101749.59
2023-12-02T23:50:52.788Z,101744.94
2023-12-02T23:53:19.817Z,101738.72
2023-12-02T23:55:46.705Z,101743.84
2023-12-02T23:58:13.937Z,101738.16
